Wisconsin Rapids, Wisconsin
Current Conditions -  °F | °C
As of 11:04 AM on Sunday 23 Nov 2014 (Local Time) from KISW Reporting Station
Overcast Overcast  
Wind Chill:   Ceiling: 300
Heat Index:   Visibility: NA
Dew Point:   Wind: 8mph
Humidity: 93%   Direction: 180°S
Pressure: 29.55"   Gusts: NA
Location:  44.39°N, 89.82°W
Report Text: KISW 231704Z AUTO 18007KT OVC003 09/08 A2955 RMK AO2 T00940083 $
Loading
Personal Weather Stations






























Interactive Weather Map New forecast layout! Learn more

10-Day Weather Forecast

Advertisements
Track Severe Weather on mobile